sensor_id;sensor_type;location;lat;lon;timestamp;temperature;humidity
22716;DHT22;11525;51.152;4.456;2023-06-01T00:09:14;14.10;99.90
22716;DHT22;11525;51.152;4.456;2023-06-01T00:12:21;14.10;99.90
22716;DHT22;11525;51.152;4.456;2023-06-01T00:15:25;14.10;99.90
22716;DHT22;11525;51.152;4.456;2023-06-01T00:54:16;13.60;99.90
22716;DHT22;11525;51.152;4.456;2023-06-01T02:16:08;12.40;99.90
22716;DHT22;11525;51.152;4.456;2023-06-01T02:28:23;12.20;99.90
22716;DHT22;11525;51.152;4.456;2023-06-01T02:30:49;12.20;99.90
22716;DHT22;11525;51.152;4.456;2023-06-01T02:33:14;12.20;99.90
22716;DHT22;11525;51.152;4.456;2023-06-01T02:35:40;12.10;99.90
22716;DHT22;11525;51.152;4.456;2023-06-01T02:38:06;12.10;99.90
22716;DHT22;11525;51.152;4.456;2023-06-01T02:40:32;12.20;99.90
22716;DHT22;11525;51.152;4.456;2023-06-01T02:42:58;12.10;99.90
22716;DHT22;11525;51.152;4.456;2023-06-01T02:45:23;12.20;99.90
22716;DHT22;11525;51.152;4.456;2023-06-01T02:47:49;12.10;99.90
22716;DHT22;11525;51.152;4.456;2023-06-01T02:50:15;12.00;99.90
22716;DHT22;11525;51.152;4.456;2023-06-01T02:52:40;12.00;99.90
22716;DHT22;11525;51.152;4.456;2023-06-01T02:55:07;12.00;99.90
22716;DHT22;11525;51.152;4.456;2023-06-01T02:57:33;12.10;99.90
22716;DHT22;11525;51.152;4.456;2023-06-01T02:59:59;12.00;99.90
22716;DHT22;11525;51.152;4.456;2023-06-01T03:02:25;12.00;99.90
22716;DHT22;11525;51.152;4.456;2023-06-01T03:04:51;11.80;99.90
22716;DHT22;11525;51.152;4.456;2023-06-01T03:07:18;11.80;99.90
22716;DHT22;11525;51.152;4.456;2023-06-01T03:09:44;11.80;99.90
22716;DHT22;11525;51.152;4.456;2023-06-01T03:12:10;11.80;99.90
22716;DHT22;11525;51.152;4.456;2023-06-01T03:14:35;11.70;99.90
22716;DHT22;11525;51.152;4.456;2023-06-01T03:17:01;11.60;99.90
22716;DHT22;11525;51.152;4.456;2023-06-01T03:19:27;11.60;99.90
22716;DHT22;11525;51.152;4.456;2023-06-01T03:21:52;11.50;99.90
22716;DHT22;11525;51.152;4.456;2023-06-01T03:24:18;11.60;99.90
22716;DHT22;11525;51.152;4.456;2023-06-01T03:26:44;11.50;99.90
22716;DHT22;11525;51.152;4.456;2023-06-01T03:29:10;11.50;99.90
22716;DHT22;11525;51.152;4.456;2023-06-01T03:31:35;11.40;99.90
22716;DHT22;11525;51.152;4.456;2023-06-01T03:34:02;11.40;99.90
22716;DHT22;11525;51.152;4.456;2023-06-01T03:36:28;11.40;99.90
22716;DHT22;11525;51.152;4.456;2023-06-01T03:38:53;11.50;99.90
22716;DHT22;11525;51.152;4.456;2023-06-01T03:41:19;11.40;99.90
22716;DHT22;11525;51.152;4.456;2023-06-01T03:43:45;11.40;99.90
22716;DHT22;11525;51.152;4.456;2023-06-01T03:46:11;11.40;99.90
22716;DHT22;11525;51.152;4.456;2023-06-01T03:48:37;11.40;99.90
22716;DHT22;11525;51.152;4.456;2023-06-01T03:51:02;11.40;99.90
22716;DHT22;11525;51.152;4.456;2023-06-01T03:53:29;11.50;99.90
22716;DHT22;11525;51.152;4.456;2023-06-01T03:55:56;11.50;99.90
22716;DHT22;11525;51.152;4.456;2023-06-01T03:58:22;11.40;99.90
22716;DHT22;11525;51.152;4.456;2023-06-01T04:00:49;11.50;99.90
22716;DHT22;11525;51.152;4.456;2023-06-01T04:03:15;11.50;99.90
22716;DHT22;11525;51.152;4.456;2023-06-01T04:05:41;11.60;99.90
22716;DHT22;11525;51.152;4.456;2023-06-01T04:08:07;11.60;99.90
22716;DHT22;11525;51.152;4.456;2023-06-01T04:10:34;11.70;99.90
22716;DHT22;11525;51.152;4.456;2023-06-01T04:12:59;11.70;99.90
22716;DHT22;11525;51.152;4.456;2023-06-01T04:15:25;11.70;99.90
22716;DHT22;11525;51.152;4.456;2023-06-01T04:17:51;11.50;99.90
22716;DHT22;11525;51.152;4.456;2023-06-01T04:20:17;11.70;99.90
22716;DHT22;11525;51.152;4.456;2023-06-01T04:22:44;11.60;99.90
22716;DHT22;11525;51.152;4.456;2023-06-01T04:25:14;11.60;99.90
22716;DHT22;11525;51.152;4.456;2023-06-01T04:27:45;11.80;99.90
22716;DHT22;11525;51.152;4.456;2023-06-01T04:30:12;11.80;99.90
22716;DHT22;11525;51.152;4.456;2023-06-01T04:32:39;12.00;99.90
22716;DHT22;11525;51.152;4.456;2023-06-01T04:35:06;12.00;99.90
22716;DHT22;11525;51.152;4.456;2023-06-01T04:37:33;11.90;99.90
22716;DHT22;11525;51.152;4.456;2023-06-01T04:40:00;11.90;99.90
22716;DHT22;11525;51.152;4.456;2023-06-01T04:42:26;11.90;99.90
22716;DHT22;11525;51.152;4.456;2023-06-01T04:44:53;11.80;99.90
22716;DHT22;11525;51.152;4.456;2023-06-01T04:47:19;12.00;99.90
22716;DHT22;11525;51.152;4.456;2023-06-01T04:49:47;12.00;99.90
22716;DHT22;11525;51.152;4.456;2023-06-01T04:52:13;12.00;99.90
22716;DHT22;11525;51.152;4.456;2023-06-01T04:54:39;11.90;99.90
22716;DHT22;11525;51.152;4.456;2023-06-01T04:57:05;11.80;99.90
22716;DHT22;11525;51.152;4.456;2023-06-01T04:59:32;11.70;99.90
22716;DHT22;11525;51.152;4.456;2023-06-01T05:01:59;11.70;99.90
22716;DHT22;11525;51.152;4.456;2023-06-01T05:04:24;11.50;99.90
22716;DHT22;11525;51.152;4.456;2023-06-01T05:06:50;11.30;99.90
22716;DHT22;11525;51.152;4.456;2023-06-01T05:09:16;11.40;99.90
22716;DHT22;11525;51.152;4.456;2023-06-01T05:11:43;11.50;99.90
22716;DHT22;11525;51.152;4.456;2023-06-01T05:14:09;11.70;99.90
22716;DHT22;11525;51.152;4.456;2023-06-01T05:16:35;11.80;99.90
22716;DHT22;11525;51.152;4.456;2023-06-01T05:19:01;11.70;99.90
22716;DHT22;11525;51.152;4.456;2023-06-01T05:21:27;11.80;99.90
22716;DHT22;11525;51.152;4.456;2023-06-01T05:23:53;11.80;99.90
22716;DHT22;11525;51.152;4.456;2023-06-01T05:26:19;12.10;99.90
22716;DHT22;11525;51.152;4.456;2023-06-01T05:28:45;12.00;99.90
22716;DHT22;11525;51.152;4.456;2023-06-01T05:31:10;12.20;99.90
22716;DHT22;11525;51.152;4.456;2023-06-01T05:33:36;12.30;99.90
22716;DHT22;11525;51.152;4.456;2023-06-01T05:36:02;12.30;99.90
22716;DHT22;11525;51.152;4.456;2023-06-01T05:38:28;12.30;99.90
22716;DHT22;11525;51.152;4.456;2023-06-01T05:40:54;12.20;99.90
22716;DHT22;11525;51.152;4.456;2023-06-01T05:43:20;12.20;99.90
22716;DHT22;11525;51.152;4.456;2023-06-01T05:45:46;12.40;99.90
22716;DHT22;11525;51.152;4.456;2023-06-01T05:48:13;12.50;99.90
22716;DHT22;11525;51.152;4.456;2023-06-01T05:50:41;12.50;99.90
22716;DHT22;11525;51.152;4.456;2023-06-01T05:53:10;12.30;99.90
22716;DHT22;11525;51.152;4.456;2023-06-01T05:55:35;12.20;99.90
22716;DHT22;11525;51.152;4.456;2023-06-01T05:58:01;12.20;99.90
22716;DHT22;11525;51.152;4.456;2023-06-01T06:00:27;12.30;99.90
22716;DHT22;11525;51.152;4.456;2023-06-01T06:02:53;12.60;99.90
22716;DHT22;11525;51.152;4.456;2023-06-01T06:05:19;12.80;99.90
22716;DHT22;11525;51.152;4.456;2023-06-01T06:07:44;13.00;99.90
22716;DHT22;11525;51.152;4.456;2023-06-01T06:10:11;12.90;99.90
22716;DHT22;11525;51.152;4.456;2023-06-01T06:12:37;12.80;99.90
22716;DHT22;11525;51.152;4.456;2023-06-01T06:15:03;12.70;99.90
22716;DHT22;11525;51.152;4.456;2023-06-01T06:17:30;12.70;99.90
22716;DHT22;11525;51.152;4.456;2023-06-01T06:19:55;12.90;99.90
22716;DHT22;11525;51.152;4.456;2023-06-01T06:22:21;13.00;99.90
22716;DHT22;11525;51.152;4.456;2023-06-01T06:24:47;13.40;99.90
22716;DHT22;11525;51.152;4.456;2023-06-01T06:27:13;13.70;99.90
22716;DHT22;11525;51.152;4.456;2023-06-01T06:29:38;13.90;99.90
22716;DHT22;11525;51.152;4.456;2023-06-01T06:32:05;13.60;99.90
22716;DHT22;11525;51.152;4.456;2023-06-01T06:34:31;13.70;99.90
22716;DHT22;11525;51.152;4.456;2023-06-01T06:37:03;14.00;99.90
22716;DHT22;11525;51.152;4.456;2023-06-01T06:39:28;14.00;99.90
22716;DHT22;11525;51.152;4.456;2023-06-01T06:41:54;14.10;99.90
22716;DHT22;11525;51.152;4.456;2023-06-01T06:44:20;14.50;99.90
22716;DHT22;11525;51.152;4.456;2023-06-01T06:46:45;14.70;99.90
22716;DHT22;11525;51.152;4.456;2023-06-01T06:49:11;14.80;99.90
22716;DHT22;11525;51.152;4.456;2023-06-01T06:51:37;15.30;99.90
22716;DHT22;11525;51.152;4.456;2023-06-01T06:54:03;15.30;99.90
22716;DHT22;11525;51.152;4.456;2023-06-01T06:56:31;15.60;99.90
22716;DHT22;11525;51.152;4.456;2023-06-01T06:58:56;16.30;99.90
22716;DHT22;11525;51.152;4.456;2023-06-01T07:01:22;16.90;99.90
22716;DHT22;11525;51.152;4.456;2023-06-01T07:03:51;18.10;99.90
22716;DHT22;11525;51.152;4.456;2023-06-01T07:06:18;19.80;99.90
22716;DHT22;11525;51.152;4.456;2023-06-01T07:08:44;21.80;99.90
22716;DHT22;11525;51.152;4.456;2023-06-01T07:11:10;23.20;99.90
22716;DHT22;11525;51.152;4.456;2023-06-01T07:13:36;24.20;97.90
22716;DHT22;11525;51.152;4.456;2023-06-01T07:16:03;24.70;94.50
22716;DHT22;11525;51.152;4.456;2023-06-01T07:18:30;25.80;91.20
22716;DHT22;11525;51.152;4.456;2023-06-01T07:20:57;27.30;84.40
22716;DHT22;11525;51.152;4.456;2023-06-01T07:23:23;27.70;75.70
22716;DHT22;11525;51.152;4.456;2023-06-01T07:25:48;27.30;76.60
22716;DHT22;11525;51.152;4.456;2023-06-01T07:28:15;27.10;74.60
22716;DHT22;11525;51.152;4.456;2023-06-01T07:30:41;26.80;74.50
22716;DHT22;11525;51.152;4.456;2023-06-01T07:33:07;27.50;72.00
22716;DHT22;11525;51.152;4.456;2023-06-01T07:35:33;27.50;71.30
22716;DHT22;11525;51.152;4.456;2023-06-01T07:37:59;29.20;66.70
22716;DHT22;11525;51.152;4.456;2023-06-01T07:40:25;29.10;63.10
22716;DHT22;11525;51.152;4.456;2023-06-01T07:42:51;28.80;62.40
22716;DHT22;11525;51.152;4.456;2023-06-01T07:45:17;29.50;60.90
22716;DHT22;11525;51.152;4.456;2023-06-01T07:47:42;29.00;60.10
22716;DHT22;11525;51.152;4.456;2023-06-01T07:50:08;28.70;60.40
22716;DHT22;11525;51.152;4.456;2023-06-01T07:52:34;28.60;60.80
22716;DHT22;11525;51.152;4.456;2023-06-01T07:55:00;27.90;60.00
22716;DHT22;11525;51.152;4.456;2023-06-01T07:57:26;29.80;58.90
22716;DHT22;11525;51.152;4.456;2023-06-01T07:59:52;29.90;57.50
22716;DHT22;11525;51.152;4.456;2023-06-01T08:02:18;29.90;56.40
22716;DHT22;11525;51.152;4.456;2023-06-01T08:04:45;29.80;56.80
22716;DHT22;11525;51.152;4.456;2023-06-01T08:07:12;29.20;56.00
22716;DHT22;11525;51.152;4.456;2023-06-01T08:09:40;30.20;55.40
22716;DHT22;11525;51.152;4.456;2023-06-01T08:12:08;30.90;53.70
22716;DHT22;11525;51.152;4.456;2023-06-01T08:14:33;30.40;53.20
22716;DHT22;11525;51.152;4.456;2023-06-01T08:17:02;30.70;52.40
22716;DHT22;11525;51.152;4.456;2023-06-01T08:19:28;31.00;50.80
22716;DHT22;11525;51.152;4.456;2023-06-01T08:21:54;32.10;49.40
22716;DHT22;11525;51.152;4.456;2023-06-01T08:24:20;31.20;49.40
22716;DHT22;11525;51.152;4.456;2023-06-01T08:26:50;30.50;50.20
22716;DHT22;11525;51.152;4.456;2023-06-01T08:29:16;31.10;51.20
22716;DHT22;11525;51.152;4.456;2023-06-01T08:31:42;30.50;49.60
22716;DHT22;11525;51.152;4.456;2023-06-01T08:34:07;29.60;52.20
22716;DHT22;11525;51.152;4.456;2023-06-01T08:36:33;29.00;53.00
22716;DHT22;11525;51.152;4.456;2023-06-01T08:38:59;28.70;53.30
22716;DHT22;11525;51.152;4.456;2023-06-01T08:41:36;27.50;54.50
22716;DHT22;11525;51.152;4.456;2023-06-01T08:44:08;28.30;55.00
22716;DHT22;11525;51.152;4.456;2023-06-01T08:46:35;29.60;52.90
22716;DHT22;11525;51.152;4.456;2023-06-01T08:49:01;29.50;52.40
22716;DHT22;11525;51.152;4.456;2023-06-01T08:51:28;30.00;52.60
22716;DHT22;11525;51.152;4.456;2023-06-01T08:54:00;31.10;49.70
22716;DHT22;11525;51.152;4.456;2023-06-01T08:56:28;30.50;50.60
22716;DHT22;11525;51.152;4.456;2023-06-01T08:58:54;31.60;49.80
22716;DHT22;11525;51.152;4.456;2023-06-01T09:01:20;31.90;48.20
22716;DHT22;11525;51.152;4.456;2023-06-01T09:03:49;32.80;47.50
22716;DHT22;11525;51.152;4.456;2023-06-01T09:06:16;33.10;46.20
22716;DHT22;11525;51.152;4.456;2023-06-01T09:08:41;32.40;46.40
22716;DHT22;11525;51.152;4.456;2023-06-01T09:11:07;32.60;46.70
22716;DHT22;11525;51.152;4.456;2023-06-01T09:13:34;33.00;45.00
22716;DHT22;11525;51.152;4.456;2023-06-01T09:16:01;33.30;44.10
22716;DHT22;11525;51.152;4.456;2023-06-01T09:18:26;32.30;45.60
22716;DHT22;11525;51.152;4.456;2023-06-01T09:20:52;32.80;45.50
22716;DHT22;11525;51.152;4.456;2023-06-01T09:23:28;31.90;45.90
22716;DHT22;11525;51.152;4.456;2023-06-01T09:26:08;31.80;46.20
22716;DHT22;11525;51.152;4.456;2023-06-01T09:28:54;31.70;46.50
22716;DHT22;11525;51.152;4.456;2023-06-01T09:34:21;31.00;48.10
22716;DHT22;11525;51.152;4.456;2023-06-01T09:36:52;31.80;46.30
22716;DHT22;11525;51.152;4.456;2023-06-01T09:39:20;32.70;45.80
22716;DHT22;11525;51.152;4.456;2023-06-01T09:47:08;34.30;44.00
22716;DHT22;11525;51.152;4.456;2023-06-01T09:49:44;33.00;43.90
22716;DHT22;11525;51.152;4.456;2023-06-01T09:52:13;33.40;43.50
22716;DHT22;11525;51.152;4.456;2023-06-01T09:54:50;31.80;44.70
22716;DHT22;11525;51.152;4.456;2023-06-01T09:57:24;30.70;46.80
22716;DHT22;11525;51.152;4.456;2023-06-01T09:59:50;31.20;45.70
22716;DHT22;11525;51.152;4.456;2023-06-01T10:02:21;31.50;44.90
22716;DHT22;11525;51.152;4.456;2023-06-01T10:04:53;31.30;45.00
22716;DHT22;11525;51.152;4.456;2023-06-01T10:07:22;32.40;45.50
22716;DHT22;11525;51.152;4.456;2023-06-01T10:09:51;32.60;43.60
22716;DHT22;11525;51.152;4.456;2023-06-01T10:12:17;32.70;44.40
22716;DHT22;11525;51.152;4.456;2023-06-01T10:14:43;31.70;45.40
22716;DHT22;11525;51.152;4.456;2023-06-01T10:17:09;30.80;46.10
22716;DHT22;11525;51.152;4.456;2023-06-01T10:19:37;31.30;47.00
22716;DHT22;11525;51.152;4.456;2023-06-01T10:22:04;31.60;45.60
22716;DHT22;11525;51.152;4.456;2023-06-01T10:24:31;32.10;45.10
22716;DHT22;11525;51.152;4.456;2023-06-01T10:29:23;33.00;43.20
22716;DHT22;11525;51.152;4.456;2023-06-01T10:31:50;33.40;42.60
22716;DHT22;11525;51.152;4.456;2023-06-01T10:34:37;33.80;42.40
22716;DHT22;11525;51.152;4.456;2023-06-01T10:39:32;33.90;41.40
22716;DHT22;11525;51.152;4.456;2023-06-01T10:44:46;32.10;42.20
22716;DHT22;11525;51.152;4.456;2023-06-01T10:52:32;33.00;41.00
22716;DHT22;11525;51.152;4.456;2023-06-01T10:57:40;31.60;44.30
22716;DHT22;11525;51.152;4.456;2023-06-01T11:05:49;28.00;50.30
22716;DHT22;11525;51.152;4.456;2023-06-01T11:13:22;24.70;56.60
22716;DHT22;11525;51.152;4.456;2023-06-01T11:18:54;24.30;58.50
22716;DHT22;11525;51.152;4.456;2023-06-01T11:21:28;23.80;59.50
22716;DHT22;11525;51.152;4.456;2023-06-01T11:23:55;23.50;61.10
22716;DHT22;11525;51.152;4.456;2023-06-01T11:26:55;23.30;59.90
22716;DHT22;11525;51.152;4.456;2023-06-01T11:29:15;23.20;62.30
22716;DHT22;11525;51.152;4.456;2023-06-01T11:31:46;23.20;62.10
22716;DHT22;11525;51.152;4.456;2023-06-01T11:34:14;22.80;64.10
22716;DHT22;11525;51.152;4.456;2023-06-01T11:36:46;22.70;64.80
22716;DHT22;11525;51.152;4.456;2023-06-01T11:39:27;22.20;65.70
22716;DHT22;11525;51.152;4.456;2023-06-01T11:42:23;22.30;65.60
22716;DHT22;11525;51.152;4.456;2023-06-01T11:44:59;22.70;66.80
22716;DHT22;11525;51.152;4.456;2023-06-01T11:47:29;22.60;66.60
22716;DHT22;11525;51.152;4.456;2023-06-01T11:49:59;22.70;66.40
22716;DHT22;11525;51.152;4.456;2023-06-01T11:52:25;22.60;65.20
22716;DHT22;11525;51.152;4.456;2023-06-01T11:54:51;22.80;66.10
22716;DHT22;11525;51.152;4.456;2023-06-01T11:57:17;22.60;66.80
22716;DHT22;11525;51.152;4.456;2023-06-01T11:59:49;22.60;67.80
22716;DHT22;11525;51.152;4.456;2023-06-01T12:02:25;22.30;67.30
22716;DHT22;11525;51.152;4.456;2023-06-01T12:05:02;22.20;67.10
22716;DHT22;11525;51.152;4.456;2023-06-01T12:07:32;22.30;69.10
22716;DHT22;11525;51.152;4.456;2023-06-01T12:10:10;22.10;70.10
22716;DHT22;11525;51.152;4.456;2023-06-01T12:12:36;22.20;71.60
22716;DHT22;11525;51.152;4.456;2023-06-01T12:15:03;22.10;72.30
22716;DHT22;11525;51.152;4.456;2023-06-01T12:17:49;22.00;74.10
22716;DHT22;11525;51.152;4.456;2023-06-01T12:20:36;22.30;74.00
22716;DHT22;11525;51.152;4.456;2023-06-01T12:23:22;22.30;72.90
22716;DHT22;11525;51.152;4.456;2023-06-01T12:25:51;22.30;70.80
22716;DHT22;11525;51.152;4.456;2023-06-01T12:28:17;22.40;70.90
22716;DHT22;11525;51.152;4.456;2023-06-01T12:30:44;22.40;70.30
22716;DHT22;11525;51.152;4.456;2023-06-01T12:33:33;22.70;70.90
22716;DHT22;11525;51.152;4.456;2023-06-01T12:35:59;22.60;70.80
22716;DHT22;11525;51.152;4.456;2023-06-01T12:38:25;22.30;71.40
22716;DHT22;11525;51.152;4.456;2023-06-01T12:41:08;21.90;70.40
22716;DHT22;11525;51.152;4.456;2023-06-01T12:43:35;21.80;72.60
22716;DHT22;11525;51.152;4.456;2023-06-01T12:46:02;21.80;72.80
22716;DHT22;11525;51.152;4.456;2023-06-01T12:48:35;21.90;73.00
22716;DHT22;11525;51.152;4.456;2023-06-01T12:51:02;21.70;72.70
22716;DHT22;11525;51.152;4.456;2023-06-01T12:53:29;21.80;73.30
22716;DHT22;11525;51.152;4.456;2023-06-01T12:55:55;21.50;72.30
22716;DHT22;11525;51.152;4.456;2023-06-01T12:58:21;21.50;72.90
22716;DHT22;11525;51.152;4.456;2023-06-01T13:00:46;21.70;72.10
22716;DHT22;11525;51.152;4.456;2023-06-01T13:03:14;21.70;75.00
22716;DHT22;11525;51.152;4.456;2023-06-01T13:05:43;21.70;76.60
22716;DHT22;11525;51.152;4.456;2023-06-01T13:08:15;21.70;75.30
22716;DHT22;11525;51.152;4.456;2023-06-01T13:10:47;21.80;76.40
22716;DHT22;11525;51.152;4.456;2023-06-01T13:13:13;21.80;77.00
22716;DHT22;11525;51.152;4.456;2023-06-01T13:15:43;21.90;77.50
22716;DHT22;11525;51.152;4.456;2023-06-01T13:18:10;22.00;78.20
22716;DHT22;11525;51.152;4.456;2023-06-01T13:20:36;22.10;76.10
22716;DHT22;11525;51.152;4.456;2023-06-01T13:23:02;21.90;75.00
22716;DHT22;11525;51.152;4.456;2023-06-01T13:25:31;21.90;76.50
22716;DHT22;11525;51.152;4.456;2023-06-01T13:27:59;21.90;77.00
22716;DHT22;11525;51.152;4.456;2023-06-01T13:30:25;22.00;77.00
22716;DHT22;11525;51.152;4.456;2023-06-01T13:32:51;22.10;76.70
22716;DHT22;11525;51.152;4.456;2023-06-01T13:35:16;22.00;77.40
22716;DHT22;11525;51.152;4.456;2023-06-01T13:37:44;21.90;77.10
22716;DHT22;11525;51.152;4.456;2023-06-01T13:40:10;22.00;77.60
22716;DHT22;11525;51.152;4.456;2023-06-01T13:42:36;22.30;75.70
22716;DHT22;11525;51.152;4.456;2023-06-01T13:45:02;22.00;75.00
22716;DHT22;11525;51.152;4.456;2023-06-01T13:47:29;22.10;74.90
22716;DHT22;11525;51.152;4.456;2023-06-01T13:49:54;21.90;72.80
22716;DHT22;11525;51.152;4.456;2023-06-01T13:52:21;21.90;74.80
22716;DHT22;11525;51.152;4.456;2023-06-01T13:54:46;21.90;75.90
22716;DHT22;11525;51.152;4.456;2023-06-01T13:57:12;22.00;75.30
22716;DHT22;11525;51.152;4.456;2023-06-01T13:59:38;22.00;75.00
22716;DHT22;11525;51.152;4.456;2023-06-01T14:02:04;22.00;76.20
22716;DHT22;11525;51.152;4.456;2023-06-01T14:04:30;22.10;76.80
22716;DHT22;11525;51.152;4.456;2023-06-01T14:06:56;22.00;76.40
22716;DHT22;11525;51.152;4.456;2023-06-01T14:09:23;21.90;76.60
22716;DHT22;11525;51.152;4.456;2023-06-01T14:11:49;22.00;77.30
22716;DHT22;11525;51.152;4.456;2023-06-01T14:14:15;21.80;77.40
22716;DHT22;11525;51.152;4.456;2023-06-01T14:16:42;21.70;78.80
22716;DHT22;11525;51.152;4.456;2023-06-01T14:19:07;21.70;79.20
22716;DHT22;11525;51.152;4.456;2023-06-01T14:21:33;21.80;79.60
22716;DHT22;11525;51.152;4.456;2023-06-01T14:24:02;22.00;80.40
22716;DHT22;11525;51.152;4.456;2023-06-01T14:26:27;22.00;78.40
22716;DHT22;11525;51.152;4.456;2023-06-01T14:28:54;21.90;77.80
22716;DHT22;11525;51.152;4.456;2023-06-01T14:31:20;21.90;78.10
22716;DHT22;11525;51.152;4.456;2023-06-01T14:33:46;21.90;79.00
22716;DHT22;11525;51.152;4.456;2023-06-01T14:36:12;21.80;76.60
22716;DHT22;11525;51.152;4.456;2023-06-01T14:38:38;21.60;78.60
22716;DHT22;11525;51.152;4.456;2023-06-01T14:41:04;21.50;80.30
22716;DHT22;11525;51.152;4.456;2023-06-01T14:43:30;21.80;80.60
22716;DHT22;11525;51.152;4.456;2023-06-01T14:45:56;21.90;80.30
22716;DHT22;11525;51.152;4.456;2023-06-01T14:48:22;21.80;80.40
22716;DHT22;11525;51.152;4.456;2023-06-01T14:50:48;21.70;81.60
22716;DHT22;11525;51.152;4.456;2023-06-01T14:53:14;21.70;81.60
22716;DHT22;11525;51.152;4.456;2023-06-01T14:55:40;21.80;82.10
22716;DHT22;11525;51.152;4.456;2023-06-01T14:58:07;21.80;80.30
22716;DHT22;11525;51.152;4.456;2023-06-01T15:00:32;22.00;81.00
22716;DHT22;11525;51.152;4.456;2023-06-01T15:02:58;21.80;81.40
22716;DHT22;11525;51.152;4.456;2023-06-01T15:05:24;21.90;82.70
22716;DHT22;11525;51.152;4.456;2023-06-01T15:07:50;21.80;82.50
22716;DHT22;11525;51.152;4.456;2023-06-01T15:10:16;21.70;82.40
22716;DHT22;11525;51.152;4.456;2023-06-01T15:12:42;21.80;83.20
22716;DHT22;11525;51.152;4.456;2023-06-01T15:15:07;21.70;82.70
22716;DHT22;11525;51.152;4.456;2023-06-01T15:17:33;21.90;82.70
22716;DHT22;11525;51.152;4.456;2023-06-01T15:19:59;21.90;81.00
22716;DHT22;11525;51.152;4.456;2023-06-01T15:22:25;22.00;81.40
22716;DHT22;11525;51.152;4.456;2023-06-01T15:24:50;21.80;81.90
22716;DHT22;11525;51.152;4.456;2023-06-01T15:27:16;21.70;82.10
22716;DHT22;11525;51.152;4.456;2023-06-01T15:29:42;21.50;83.90
22716;DHT22;11525;51.152;4.456;2023-06-01T15:32:08;21.50;84.50
22716;DHT22;11525;51.152;4.456;2023-06-01T15:34:33;21.40;86.60
22716;DHT22;11525;51.152;4.456;2023-06-01T15:36:59;21.50;84.90
22716;DHT22;11525;51.152;4.456;2023-06-01T15:39:25;21.60;84.10
22716;DHT22;11525;51.152;4.456;2023-06-01T15:41:51;21.50;83.90
22716;DHT22;11525;51.152;4.456;2023-06-01T15:44:18;21.50;83.60
22716;DHT22;11525;51.152;4.456;2023-06-01T15:46:44;21.50;85.00
22716;DHT22;11525;51.152;4.456;2023-06-01T15:49:11;21.60;81.80
22716;DHT22;11525;51.152;4.456;2023-06-01T15:51:37;21.60;81.80
22716;DHT22;11525;51.152;4.456;2023-06-01T15:54:03;21.70;83.80
22716;DHT22;11525;51.152;4.456;2023-06-01T15:56:29;21.80;83.70
22716;DHT22;11525;51.152;4.456;2023-06-01T15:58:55;21.60;82.80
22716;DHT22;11525;51.152;4.456;2023-06-01T16:01:20;21.50;83.10
22716;DHT22;11525;51.152;4.456;2023-06-01T16:03:46;21.50;82.30
22716;DHT22;11525;51.152;4.456;2023-06-01T16:06:11;21.40;83.70
22716;DHT22;11525;51.152;4.456;2023-06-01T16:08:37;21.20;84.20
22716;DHT22;11525;51.152;4.456;2023-06-01T16:11:03;21.20;83.90
22716;DHT22;11525;51.152;4.456;2023-06-01T16:13:29;21.10;85.10
22716;DHT22;11525;51.152;4.456;2023-06-01T16:15:56;21.20;86.80
22716;DHT22;11525;51.152;4.456;2023-06-01T16:18:22;21.40;85.70
22716;DHT22;11525;51.152;4.456;2023-06-01T16:20:47;21.20;82.40
22716;DHT22;11525;51.152;4.456;2023-06-01T16:23:13;21.40;83.90
22716;DHT22;11525;51.152;4.456;2023-06-01T16:25:39;21.30;84.70
22716;DHT22;11525;51.152;4.456;2023-06-01T16:28:05;21.30;83.80
22716;DHT22;11525;51.152;4.456;2023-06-01T16:30:30;21.30;84.50
22716;DHT22;11525;51.152;4.456;2023-06-01T16:32:56;21.20;83.90
22716;DHT22;11525;51.152;4.456;2023-06-01T16:35:22;21.20;84.50
22716;DHT22;11525;51.152;4.456;2023-06-01T16:37:47;21.30;85.10
22716;DHT22;11525;51.152;4.456;2023-06-01T16:40:15;21.20;84.50
22716;DHT22;11525;51.152;4.456;2023-06-01T16:42:43;21.10;86.40
22716;DHT22;11525;51.152;4.456;2023-06-01T16:45:09;20.90;87.40
22716;DHT22;11525;51.152;4.456;2023-06-01T16:47:35;20.70;88.50
22716;DHT22;11525;51.152;4.456;2023-06-01T16:50:01;20.90;90.00
22716;DHT22;11525;51.152;4.456;2023-06-01T16:52:26;21.00;90.20
22716;DHT22;11525;51.152;4.456;2023-06-01T16:54:52;21.10;90.60
22716;DHT22;11525;51.152;4.456;2023-06-01T16:57:20;20.90;91.90
22716;DHT22;11525;51.152;4.456;2023-06-01T16:59:46;20.70;93.30
22716;DHT22;11525;51.152;4.456;2023-06-01T17:02:12;20.50;95.00
22716;DHT22;11525;51.152;4.456;2023-06-01T17:04:38;20.30;97.00
22716;DHT22;11525;51.152;4.456;2023-06-01T17:07:04;20.20;98.00
22716;DHT22;11525;51.152;4.456;2023-06-01T17:09:30;20.00;99.50
22716;DHT22;11525;51.152;4.456;2023-06-01T17:11:56;19.80;99.90
22716;DHT22;11525;51.152;4.456;2023-06-01T17:14:22;19.70;99.90
22716;DHT22;11525;51.152;4.456;2023-06-01T17:16:48;19.60;99.90
22716;DHT22;11525;51.152;4.456;2023-06-01T17:19:13;19.50;99.90
22716;DHT22;11525;51.152;4.456;2023-06-01T17:21:39;19.30;99.90
22716;DHT22;11525;51.152;4.456;2023-06-01T17:24:05;19.10;99.90
22716;DHT22;11525;51.152;4.456;2023-06-01T17:26:31;19.00;99.90
22716;DHT22;11525;51.152;4.456;2023-06-01T17:28:57;18.90;99.90
22716;DHT22;11525;51.152;4.456;2023-06-01T17:31:22;18.90;99.90
22716;DHT22;11525;51.152;4.456;2023-06-01T17:33:48;18.70;99.90
22716;DHT22;11525;51.152;4.456;2023-06-01T17:36:14;18.50;99.90
22716;DHT22;11525;51.152;4.456;2023-06-01T17:38:39;18.50;99.90
22716;DHT22;11525;51.152;4.456;2023-06-01T17:41:05;18.40;99.90
22716;DHT22;11525;51.152;4.456;2023-06-01T17:43:32;18.30;99.90
22716;DHT22;11525;51.152;4.456;2023-06-01T17:45:57;18.20;99.90
22716;DHT22;11525;51.152;4.456;2023-06-01T17:48:23;18.00;99.90
22716;DHT22;11525;51.152;4.456;2023-06-01T17:50:49;17.70;99.90
22716;DHT22;11525;51.152;4.456;2023-06-01T17:53:15;17.50;99.90
22716;DHT22;11525;51.152;4.456;2023-06-01T17:55:41;17.40;99.90
22716;DHT22;11525;51.152;4.456;2023-06-01T17:58:07;17.30;99.90
22716;DHT22;11525;51.152;4.456;2023-06-01T18:00:32;17.30;99.90
22716;DHT22;11525;51.152;4.456;2023-06-01T18:02:58;17.30;99.90
22716;DHT22;11525;51.152;4.456;2023-06-01T18:05:24;17.40;99.90
22716;DHT22;11525;51.152;4.456;2023-06-01T18:07:49;17.30;99.90
22716;DHT22;11525;51.152;4.456;2023-06-01T18:10:15;16.90;99.90
22716;DHT22;11525;51.152;4.456;2023-06-01T18:12:41;16.90;99.90
22716;DHT22;11525;51.152;4.456;2023-06-01T18:15:07;16.80;99.90
22716;DHT22;11525;51.152;4.456;2023-06-01T18:17:32;16.80;99.90
22716;DHT22;11525;51.152;4.456;2023-06-01T18:19:59;16.70;99.90
22716;DHT22;11525;51.152;4.456;2023-06-01T18:22:25;16.60;99.90